Current Weather

Linguere

Linguere, Senegal (GOOG)

Report from: Monday, May 23, 2022 8:00 AM GMT
Current time: Monday, May 23, 2022 9:06 AM GMT

Nearby weather
Weather history
Weather forecast

Temperature22.0°C (71.6°F)
Dew point17.0°C (62.6°F)
Winds 6 kts (3.1 m/s, 6.9 mph) West (280°)
Clouds Sky clear
Altimeter29.83 in.Hg (1010 mB)
Relative humidity73 %
Density altitude1,191 ft. (363 m)
Remarks Ceiling and visibility OK
Flight conditions Visual Meteorological Conditions
Raw dataGOOG 230800Z 28006KT CAVOK 22/17 Q1010
An error has occurred. This application may no longer respond until reloaded. Reload 🗙